sensor_id;sensor_type;location;lat;lon;timestamp;pressure;altitude;pressure_sealevel;temperature;humidity
73245;BME280;61460;41.158;-73.238;2022-10-16T00:01:41;101484.63;;;24.21;47.75
73245;BME280;61460;41.158;-73.238;2022-10-16T00:04:13;101486.16;;;24.27;47.66
73245;BME280;61460;41.158;-73.238;2022-10-16T00:06:42;101487.12;;;24.24;47.77
73245;BME280;61460;41.158;-73.238;2022-10-16T00:09:13;101483.28;;;24.24;47.86
73245;BME280;61460;41.158;-73.238;2022-10-16T00:11:44;101482.18;;;24.24;47.91
73245;BME280;61460;41.158;-73.238;2022-10-16T00:14:15;101484.92;;;24.24;47.96
73245;BME280;61460;41.158;-73.238;2022-10-16T00:16:45;101485.97;;;24.21;48.08
73245;BME280;61460;41.158;-73.238;2022-10-16T00:19:15;101483.83;;;24.22;48.14
73245;BME280;61460;41.158;-73.238;2022-10-16T00:21:46;101482.03;;;24.25;48.15
73245;BME280;61460;41.158;-73.238;2022-10-16T00:24:17;101487.17;;;24.21;48.29
73245;BME280;61460;41.158;-73.238;2022-10-16T00:26:49;101488.98;;;24.23;48.33
73245;BME280;61460;41.158;-73.238;2022-10-16T00:29:18;101485.73;;;24.23;48.41
73245;BME280;61460;41.158;-73.238;2022-10-16T00:31:49;101488.01;;;24.22;48.49
73245;BME280;61460;41.158;-73.238;2022-10-16T00:34:19;101487.85;;;24.29;48.44
73245;BME280;61460;41.158;-73.238;2022-10-16T00:36:50;101490.62;;;24.24;48.60
73245;BME280;61460;41.158;-73.238;2022-10-16T00:39:21;101494.24;;;24.22;48.75
73245;BME280;61460;41.158;-73.238;2022-10-16T00:41:51;101496.75;;;24.25;48.71
73245;BME280;61460;41.158;-73.238;2022-10-16T00:46:52;101495.05;;;24.25;48.82
73245;BME280;61460;41.158;-73.238;2022-10-16T00:49:23;101496.62;;;24.23;48.79
73245;BME280;61460;41.158;-73.238;2022-10-16T00:51:54;101498.68;;;24.25;48.83
73245;BME280;61460;41.158;-73.238;2022-10-16T00:54:27;101495.46;;;24.23;48.98
73245;BME280;61460;41.158;-73.238;2022-10-16T00:56:57;101497.41;;;24.17;49.08
73245;BME280;61460;41.158;-73.238;2022-10-16T00:59:27;101494.12;;;23.97;49.51
73245;BME280;61460;41.158;-73.238;2022-10-16T01:01:57;101499.03;;;24.08;49.20
73245;BME280;61460;41.158;-73.238;2022-10-16T01:04:29;101500.27;;;24.03;49.30
73245;BME280;61460;41.158;-73.238;2022-10-16T01:07:05;101497.82;;;23.87;49.70
73245;BME280;61460;41.158;-73.238;2022-10-16T01:09:31;101497.91;;;23.93;49.46
73245;BME280;61460;41.158;-73.238;2022-10-16T01:12:06;101498.56;;;23.83;49.72
73245;BME280;61460;41.158;-73.238;2022-10-16T01:14:36;101493.00;;;23.84;49.75
73245;BME280;61460;41.158;-73.238;2022-10-16T01:17:06;101494.76;;;23.54;50.53
73245;BME280;61460;41.158;-73.238;2022-10-16T01:19:41;101494.30;;;23.63;50.29
73245;BME280;61460;41.158;-73.238;2022-10-16T01:22:01;101496.17;;;23.56;50.43
73245;BME280;61460;41.158;-73.238;2022-10-16T01:24:38;101501.41;;;23.51;50.59
73245;BME280;61460;41.158;-73.238;2022-10-16T01:27:09;101502.61;;;23.49;50.57
73245;BME280;61460;41.158;-73.238;2022-10-16T01:29:36;101498.32;;;23.58;50.45
73245;BME280;61460;41.158;-73.238;2022-10-16T01:32:11;101500.24;;;23.52;50.60
73245;BME280;61460;41.158;-73.238;2022-10-16T01:34:38;101493.46;;;23.48;50.69
73245;BME280;61460;41.158;-73.238;2022-10-16T01:37:10;101498.40;;;23.62;50.47
73245;BME280;61460;41.158;-73.238;2022-10-16T01:39:39;101496.61;;;23.40;50.94
73245;BME280;61460;41.158;-73.238;2022-10-16T01:42:09;101501.17;;;23.38;51.04
73245;BME280;61460;41.158;-73.238;2022-10-16T01:44:38;101496.74;;;23.24;51.48
73245;BME280;61460;41.158;-73.238;2022-10-16T01:47:10;101490.70;;;23.01;52.11
73245;BME280;61460;41.158;-73.238;2022-10-16T01:49:39;101494.44;;;23.09;51.89
73245;BME280;61460;41.158;-73.238;2022-10-16T01:52:11;101497.52;;;23.34;51.23
73245;BME280;61460;41.158;-73.238;2022-10-16T01:54:42;101498.11;;;23.17;51.62
73245;BME280;61460;41.158;-73.238;2022-10-16T01:57:10;101498.85;;;23.10;51.87
73245;BME280;61460;41.158;-73.238;2022-10-16T01:59:43;101502.89;;;23.30;51.36
73245;BME280;61460;41.158;-73.238;2022-10-16T02:02:13;101506.56;;;23.00;52.15
73245;BME280;61460;41.158;-73.238;2022-10-16T02:04:45;101505.29;;;23.23;51.76
73245;BME280;61460;41.158;-73.238;2022-10-16T02:07:12;101505.24;;;22.99;52.43
73245;BME280;61460;41.158;-73.238;2022-10-16T02:09:43;101502.32;;;23.42;51.51
73245;BME280;61460;41.158;-73.238;2022-10-16T02:12:17;101499.15;;;23.67;50.96
73245;BME280;61460;41.158;-73.238;2022-10-16T02:14:44;101502.61;;;23.76;50.89
73245;BME280;61460;41.158;-73.238;2022-10-16T02:17:16;101500.84;;;23.84;50.82
73245;BME280;61460;41.158;-73.238;2022-10-16T02:19:48;101506.02;;;23.89;50.70
73245;BME280;61460;41.158;-73.238;2022-10-16T02:22:27;101504.90;;;23.94;50.68
73245;BME280;61460;41.158;-73.238;2022-10-16T02:24:51;101506.73;;;23.83;51.18
73245;BME280;61460;41.158;-73.238;2022-10-16T02:27:21;101502.79;;;23.87;50.96
73245;BME280;61460;41.158;-73.238;2022-10-16T02:29:50;101508.24;;;23.91;50.92
73245;BME280;61460;41.158;-73.238;2022-10-16T02:32:21;101503.08;;;23.89;50.92
73245;BME280;61460;41.158;-73.238;2022-10-16T02:34:49;101506.19;;;23.95;50.82
73245;BME280;61460;41.158;-73.238;2022-10-16T02:37:20;101499.22;;;24.02;50.54
73245;BME280;61460;41.158;-73.238;2022-10-16T02:39:50;101499.97;;;24.00;50.64
73245;BME280;61460;41.158;-73.238;2022-10-16T02:42:21;101501.06;;;24.01;50.67
73245;BME280;61460;41.158;-73.238;2022-10-16T02:44:51;101499.25;;;23.93;50.86
73245;BME280;61460;41.158;-73.238;2022-10-16T02:47:22;101498.42;;;23.97;50.77
73245;BME280;61460;41.158;-73.238;2022-10-16T02:49:53;101499.28;;;24.02;50.67
73245;BME280;61460;41.158;-73.238;2022-10-16T02:52:23;101502.64;;;24.03;50.60
73245;BME280;61460;41.158;-73.238;2022-10-16T02:54:54;101499.20;;;24.06;50.57
73245;BME280;61460;41.158;-73.238;2022-10-16T02:57:25;101495.92;;;24.05;50.69
73245;BME280;61460;41.158;-73.238;2022-10-16T02:59:55;101497.64;;;24.05;50.61
73245;BME280;61460;41.158;-73.238;2022-10-16T03:02:26;101495.91;;;24.00;50.80
73245;BME280;61460;41.158;-73.238;2022-10-16T03:04:56;101495.21;;;24.03;50.66
73245;BME280;61460;41.158;-73.238;2022-10-16T03:07:27;101494.12;;;24.08;50.50
73245;BME280;61460;41.158;-73.238;2022-10-16T03:09:58;101495.50;;;24.05;50.65
73245;BME280;61460;41.158;-73.238;2022-10-16T03:12:29;101493.40;;;24.07;50.70
73245;BME280;61460;41.158;-73.238;2022-10-16T03:14:59;101493.30;;;24.05;50.70
73245;BME280;61460;41.158;-73.238;2022-10-16T03:17:29;101493.05;;;24.06;50.73
73245;BME280;61460;41.158;-73.238;2022-10-16T03:20:00;101489.19;;;24.07;50.68
73245;BME280;61460;41.158;-73.238;2022-10-16T03:22:31;101491.55;;;24.02;50.81
73245;BME280;61460;41.158;-73.238;2022-10-16T03:25:01;101487.37;;;23.99;50.89
73245;BME280;61460;41.158;-73.238;2022-10-16T03:27:32;101486.27;;;23.94;50.99
73245;BME280;61460;41.158;-73.238;2022-10-16T03:30:03;101486.48;;;23.92;50.99
73245;BME280;61460;41.158;-73.238;2022-10-16T03:32:33;101487.09;;;23.97;50.91
73245;BME280;61460;41.158;-73.238;2022-10-16T03:35:05;101481.31;;;24.02;50.75
73245;BME280;61460;41.158;-73.238;2022-10-16T03:37:34;101480.68;;;23.92;50.96
73245;BME280;61460;41.158;-73.238;2022-10-16T03:40:06;101472.63;;;23.93;50.89
73245;BME280;61460;41.158;-73.238;2022-10-16T03:42:40;101473.97;;;23.99;50.93
73245;BME280;61460;41.158;-73.238;2022-10-16T03:45:07;101471.40;;;24.02;50.93
73245;BME280;61460;41.158;-73.238;2022-10-16T03:47:37;101472.79;;;23.81;51.57
73245;BME280;61460;41.158;-73.238;2022-10-16T03:50:08;101474.38;;;23.54;52.29
73245;BME280;61460;41.158;-73.238;2022-10-16T03:52:38;101474.99;;;23.73;51.95
73245;BME280;61460;41.158;-73.238;2022-10-16T03:55:09;101478.16;;;23.21;53.26
73245;BME280;61460;41.158;-73.238;2022-10-16T03:57:39;101478.23;;;23.19;53.55
73245;BME280;61460;41.158;-73.238;2022-10-16T04:00:11;101472.15;;;23.22;53.40
73245;BME280;61460;41.158;-73.238;2022-10-16T04:02:40;101473.83;;;23.25;53.29
73245;BME280;61460;41.158;-73.238;2022-10-16T04:05:13;101466.92;;;22.99;53.87
73245;BME280;61460;41.158;-73.238;2022-10-16T04:07:42;101460.21;;;23.23;53.33
73245;BME280;61460;41.158;-73.238;2022-10-16T04:10:12;101453.74;;;22.85;54.26
73245;BME280;61460;41.158;-73.238;2022-10-16T04:12:43;101457.25;;;22.84;54.48
73245;BME280;61460;41.158;-73.238;2022-10-16T04:15:13;101459.13;;;22.75;54.72
73245;BME280;61460;41.158;-73.238;2022-10-16T04:17:44;101456.27;;;22.77;54.59
73245;BME280;61460;41.158;-73.238;2022-10-16T04:20:15;101452.13;;;22.89;54.39
73245;BME280;61460;41.158;-73.238;2022-10-16T04:22:45;101455.93;;;22.76;54.80
73245;BME280;61460;41.158;-73.238;2022-10-16T04:25:16;101456.21;;;22.98;54.09
73245;BME280;61460;41.158;-73.238;2022-10-16T04:27:46;101446.29;;;22.78;54.65
73245;BME280;61460;41.158;-73.238;2022-10-16T04:30:17;101449.47;;;23.03;53.88
73245;BME280;61460;41.158;-73.238;2022-10-16T04:32:48;101454.54;;;22.81;54.53
73245;BME280;61460;41.158;-73.238;2022-10-16T04:35:19;101453.00;;;22.83;54.26
73245;BME280;61460;41.158;-73.238;2022-10-16T04:37:49;101448.61;;;22.69;54.72
73245;BME280;61460;41.158;-73.238;2022-10-16T04:40:20;101452.32;;;22.89;54.21
73245;BME280;61460;41.158;-73.238;2022-10-16T04:42:50;101453.49;;;22.38;55.64
73245;BME280;61460;41.158;-73.238;2022-10-16T04:45:21;101449.41;;;22.57;55.11
73245;BME280;61460;41.158;-73.238;2022-10-16T04:47:51;101442.86;;;22.86;54.34
73245;BME280;61460;41.158;-73.238;2022-10-16T04:50:22;101440.83;;;22.75;54.62
73245;BME280;61460;41.158;-73.238;2022-10-16T04:52:52;101439.20;;;22.91;54.17
73245;BME280;61460;41.158;-73.238;2022-10-16T04:55:23;101442.23;;;22.75;54.62
73245;BME280;61460;41.158;-73.238;2022-10-16T04:57:54;101449.13;;;22.51;55.33
73245;BME280;61460;41.158;-73.238;2022-10-16T05:00:24;101446.63;;;22.59;55.11
73245;BME280;61460;41.158;-73.238;2022-10-16T05:02:55;101446.89;;;22.53;55.22
73245;BME280;61460;41.158;-73.238;2022-10-16T05:05:25;101442.94;;;22.68;54.87
73245;BME280;61460;41.158;-73.238;2022-10-16T05:07:56;101452.83;;;22.45;55.52
73245;BME280;61460;41.158;-73.238;2022-10-16T05:10:27;101448.16;;;22.37;55.77
73245;BME280;61460;41.158;-73.238;2022-10-16T05:12:57;101448.62;;;22.41;55.77
73245;BME280;61460;41.158;-73.238;2022-10-16T05:15:28;101454.42;;;22.48;55.55
73245;BME280;61460;41.158;-73.238;2022-10-16T05:17:59;101451.08;;;22.47;55.71
73245;BME280;61460;41.158;-73.238;2022-10-16T05:20:29;101445.47;;;22.72;54.97
73245;BME280;61460;41.158;-73.238;2022-10-16T05:23:00;101446.94;;;22.15;56.72
73245;BME280;61460;41.158;-73.238;2022-10-16T05:25:30;101449.59;;;22.44;55.99
73245;BME280;61460;41.158;-73.238;2022-10-16T05:28:01;101444.30;;;22.53;55.70
73245;BME280;61460;41.158;-73.238;2022-10-16T05:30:32;101449.00;;;22.50;55.81
73245;BME280;61460;41.158;-73.238;2022-10-16T05:33:03;101451.99;;;22.43;55.94
73245;BME280;61460;41.158;-73.238;2022-10-16T05:35:34;101450.74;;;22.57;55.60
73245;BME280;61460;41.158;-73.238;2022-10-16T05:38:03;101447.80;;;22.26;56.43
73245;BME280;61460;41.158;-73.238;2022-10-16T05:40:34;101444.85;;;22.33;56.30
73245;BME280;61460;41.158;-73.238;2022-10-16T05:43:05;101443.74;;;22.18;56.66
73245;BME280;61460;41.158;-73.238;2022-10-16T05:45:35;101444.13;;;21.97;57.17
73245;BME280;61460;41.158;-73.238;2022-10-16T05:48:07;101444.06;;;22.27;56.42
73245;BME280;61460;41.158;-73.238;2022-10-16T05:50:36;101447.29;;;22.24;56.36
73245;BME280;61460;41.158;-73.238;2022-10-16T05:53:07;101443.77;;;22.43;55.74
73245;BME280;61460;41.158;-73.238;2022-10-16T05:55:38;101436.83;;;22.49;55.52
73245;BME280;61460;41.158;-73.238;2022-10-16T05:58:08;101437.32;;;22.29;56.16
73245;BME280;61460;41.158;-73.238;2022-10-16T06:00:39;101435.01;;;22.15;56.66
73245;BME280;61460;41.158;-73.238;2022-10-16T06:03:10;101433.15;;;22.03;56.95
73245;BME280;61460;41.158;-73.238;2022-10-16T06:05:40;101430.39;;;22.10;56.68
73245;BME280;61460;41.158;-73.238;2022-10-16T06:08:11;101429.35;;;22.31;56.11
73245;BME280;61460;41.158;-73.238;2022-10-16T06:10:41;101425.72;;;22.16;56.48
73245;BME280;61460;41.158;-73.238;2022-10-16T06:13:13;101421.98;;;21.85;57.43
73245;BME280;61460;41.158;-73.238;2022-10-16T06:15:43;101421.85;;;22.00;57.16
73245;BME280;61460;41.158;-73.238;2022-10-16T06:18:13;101423.06;;;22.05;56.84
73245;BME280;61460;41.158;-73.238;2022-10-16T06:20:44;101424.52;;;22.16;56.52
73245;BME280;61460;41.158;-73.238;2022-10-16T06:23:14;101425.53;;;22.16;56.63
73245;BME280;61460;41.158;-73.238;2022-10-16T06:25:45;101420.36;;;22.04;56.95
73245;BME280;61460;41.158;-73.238;2022-10-16T06:28:16;101419.43;;;22.10;56.86
73245;BME280;61460;41.158;-73.238;2022-10-16T06:30:46;101419.08;;;21.75;57.84
73245;BME280;61460;41.158;-73.238;2022-10-16T06:33:16;101415.93;;;22.00;57.16
73245;BME280;61460;41.158;-73.238;2022-10-16T06:35:47;101414.03;;;22.30;56.32
73245;BME280;61460;41.158;-73.238;2022-10-16T06:38:18;101413.01;;;22.00;57.13
73245;BME280;61460;41.158;-73.238;2022-10-16T06:40:48;101416.19;;;21.65;58.18
73245;BME280;61460;41.158;-73.238;2022-10-16T06:43:19;101410.44;;;21.81;57.71
73245;BME280;61460;41.158;-73.238;2022-10-16T06:45:51;101403.60;;;22.20;56.72
73245;BME280;61460;41.158;-73.238;2022-10-16T06:48:21;101401.56;;;21.82;57.81
73245;BME280;61460;41.158;-73.238;2022-10-16T06:50:56;101399.86;;;22.07;57.10
73245;BME280;61460;41.158;-73.238;2022-10-16T06:53:21;101395.92;;;21.90;57.49
73245;BME280;61460;41.158;-73.238;2022-10-16T06:55:52;101396.30;;;21.95;57.32
73245;BME280;61460;41.158;-73.238;2022-10-16T06:58:23;101391.60;;;21.90;57.49
73245;BME280;61460;41.158;-73.238;2022-10-16T07:00:56;101387.68;;;22.20;56.55
73245;BME280;61460;41.158;-73.238;2022-10-16T07:03:24;101389.02;;;21.85;57.37
73245;BME280;61460;41.158;-73.238;2022-10-16T07:05:55;101392.36;;;21.44;58.66
73245;BME280;61460;41.158;-73.238;2022-10-16T07:08:25;101388.27;;;21.61;58.36
73245;BME280;61460;41.158;-73.238;2022-10-16T07:11:00;101383.84;;;21.55;58.52
73245;BME280;61460;41.158;-73.238;2022-10-16T07:13:26;101383.16;;;21.82;57.73
73245;BME280;61460;41.158;-73.238;2022-10-16T07:15:57;101381.61;;;21.80;57.63
73245;BME280;61460;41.158;-73.238;2022-10-16T07:18:28;101387.30;;;21.68;58.13
73245;BME280;61460;41.158;-73.238;2022-10-16T07:21:04;101385.99;;;21.66;58.01
73245;BME280;61460;41.158;-73.238;2022-10-16T07:23:29;101384.24;;;21.62;58.08
73245;BME280;61460;41.158;-73.238;2022-10-16T07:26:00;101383.74;;;22.12;56.67
73245;BME280;61460;41.158;-73.238;2022-10-16T07:28:31;101385.87;;;21.55;58.16
73245;BME280;61460;41.158;-73.238;2022-10-16T07:31:01;101389.67;;;21.64;58.04
73245;BME280;61460;41.158;-73.238;2022-10-16T07:33:32;101385.00;;;21.76;57.56
73245;BME280;61460;41.158;-73.238;2022-10-16T07:36:02;101381.31;;;22.06;56.67
73245;BME280;61460;41.158;-73.238;2022-10-16T07:38:32;101378.08;;;21.86;57.11
73245;BME280;61460;41.158;-73.238;2022-10-16T07:41:05;101379.45;;;22.00;56.82
73245;BME280;61460;41.158;-73.238;2022-10-16T07:43:34;101371.29;;;21.57;57.96
73245;BME280;61460;41.158;-73.238;2022-10-16T07:46:04;101375.39;;;21.86;57.02
73245;BME280;61460;41.158;-73.238;2022-10-16T07:48:35;101369.25;;;21.83;57.23
73245;BME280;61460;41.158;-73.238;2022-10-16T07:51:07;101368.32;;;21.52;58.04
73245;BME280;61460;41.158;-73.238;2022-10-16T07:53:36;101370.20;;;21.72;57.43
73245;BME280;61460;41.158;-73.238;2022-10-16T07:56:08;101369.02;;;21.75;57.26
73245;BME280;61460;41.158;-73.238;2022-10-16T07:58:37;101368.53;;;21.82;57.11
73245;BME280;61460;41.158;-73.238;2022-10-16T08:01:10;101365.37;;;21.69;57.37
73245;BME280;61460;41.158;-73.238;2022-10-16T08:03:41;101365.68;;;21.70;57.41
73245;BME280;61460;41.158;-73.238;2022-10-16T08:06:09;101368.69;;;21.64;57.54
73245;BME280;61460;41.158;-73.238;2022-10-16T08:08:40;101376.07;;;21.36;58.27
73245;BME280;61460;41.158;-73.238;2022-10-16T08:11:11;101375.78;;;21.94;56.64
73245;BME280;61460;41.158;-73.238;2022-10-16T08:13:41;101374.52;;;21.55;57.81
73245;BME280;61460;41.158;-73.238;2022-10-16T08:16:11;101370.32;;;21.56;57.74
73245;BME280;61460;41.158;-73.238;2022-10-16T08:18:42;101373.77;;;21.69;57.33
73245;BME280;61460;41.158;-73.238;2022-10-16T08:21:15;101369.46;;;21.59;57.40
73245;BME280;61460;41.158;-73.238;2022-10-16T08:23:43;101378.52;;;21.36;58.02
73245;BME280;61460;41.158;-73.238;2022-10-16T08:26:14;101376.78;;;21.83;56.79
73245;BME280;61460;41.158;-73.238;2022-10-16T08:28:45;101380.22;;;21.69;57.17
73245;BME280;61460;41.158;-73.238;2022-10-16T08:31:15;101379.04;;;21.57;57.31
73245;BME280;61460;41.158;-73.238;2022-10-16T08:33:46;101387.47;;;21.47;57.74
73245;BME280;61460;41.158;-73.238;2022-10-16T08:36:17;101387.05;;;21.34;58.04
73245;BME280;61460;41.158;-73.238;2022-10-16T08:38:49;101384.43;;;21.58;57.31
73245;BME280;61460;41.158;-73.238;2022-10-16T08:41:24;101382.49;;;21.51;57.62
73245;BME280;61460;41.158;-73.238;2022-10-16T08:43:58;101380.10;;;21.47;57.77
73245;BME280;61460;41.158;-73.238;2022-10-16T08:46:29;101380.84;;;21.53;57.56
73245;BME280;61460;41.158;-73.238;2022-10-16T08:48:51;101381.90;;;21.46;57.65
73245;BME280;61460;41.158;-73.238;2022-10-16T08:51:24;101382.41;;;21.53;57.53
73245;BME280;61460;41.158;-73.238;2022-10-16T08:53:54;101376.59;;;21.50;57.96
73245;BME280;61460;41.158;-73.238;2022-10-16T08:56:22;101377.69;;;21.37;58.31
73245;BME280;61460;41.158;-73.238;2022-10-16T08:58:54;101372.33;;;21.68;57.29
73245;BME280;61460;41.158;-73.238;2022-10-16T09:01:25;101372.28;;;21.49;57.84
73245;BME280;61460;41.158;-73.238;2022-10-16T09:04:07;101376.89;;;21.23;58.58
73245;BME280;61460;41.158;-73.238;2022-10-16T09:06:31;101375.55;;;21.35;58.17
73245;BME280;61460;41.158;-73.238;2022-10-16T09:09:06;101373.86;;;21.60;57.33
73245;BME280;61460;41.158;-73.238;2022-10-16T09:11:33;101380.36;;;21.37;58.07
73245;BME280;61460;41.158;-73.238;2022-10-16T09:14:02;101390.29;;;21.49;57.69
73245;BME280;61460;41.158;-73.238;2022-10-16T09:16:31;101393.12;;;21.40;57.82
73245;BME280;61460;41.158;-73.238;2022-10-16T09:19:02;101393.04;;;21.34;57.79
73245;BME280;61460;41.158;-73.238;2022-10-16T09:21:31;101397.72;;;21.41;57.63
73245;BME280;61460;41.158;-73.238;2022-10-16T09:24:00;101396.05;;;21.50;57.34
73245;BME280;61460;41.158;-73.238;2022-10-16T09:26:30;101391.74;;;21.55;57.23
73245;BME280;61460;41.158;-73.238;2022-10-16T09:28:59;101397.69;;;21.46;57.48
73245;BME280;61460;41.158;-73.238;2022-10-16T09:31:30;101393.39;;;21.55;56.98
73245;BME280;61460;41.158;-73.238;2022-10-16T09:34:02;101398.09;;;21.28;57.84
73245;BME280;61460;41.158;-73.238;2022-10-16T09:36:35;101399.41;;;21.07;58.63
73245;BME280;61460;41.158;-73.238;2022-10-16T09:39:04;101397.75;;;21.10;58.62
73245;BME280;61460;41.158;-73.238;2022-10-16T09:41:36;101396.11;;;21.21;58.25
73245;BME280;61460;41.158;-73.238;2022-10-16T09:44:05;101389.06;;;21.15;58.39
73245;BME280;61460;41.158;-73.238;2022-10-16T09:46:35;101394.87;;;21.36;57.72
73245;BME280;61460;41.158;-73.238;2022-10-16T09:51:36;101408.67;;;20.83;59.15
73245;BME280;61460;41.158;-73.238;2022-10-16T09:54:13;101414.26;;;21.07;58.37
73245;BME280;61460;41.158;-73.238;2022-10-16T09:56:37;101417.61;;;21.22;58.21
73245;BME280;61460;41.158;-73.238;2022-10-16T09:59:11;101423.66;;;21.14;58.39
73245;BME280;61460;41.158;-73.238;2022-10-16T10:01:39;101417.64;;;20.98;58.71
73245;BME280;61460;41.158;-73.238;2022-10-16T10:04:08;101420.66;;;21.05;58.49
73245;BME280;61460;41.158;-73.238;2022-10-16T10:06:43;101420.85;;;21.22;57.95
73245;BME280;61460;41.158;-73.238;2022-10-16T10:09:15;101418.74;;;21.31;57.63
73245;BME280;61460;41.158;-73.238;2022-10-16T10:11:43;101425.14;;;21.12;58.18
73245;BME280;61460;41.158;-73.238;2022-10-16T10:14:18;101420.12;;;20.99;58.55
73245;BME280;61460;41.158;-73.238;2022-10-16T10:16:41;101421.36;;;21.04;58.31
73245;BME280;61460;41.158;-73.238;2022-10-16T10:19:15;101421.79;;;21.00;58.57
73245;BME280;61460;41.158;-73.238;2022-10-16T10:21:42;101424.31;;;21.05;58.54
73245;BME280;61460;41.158;-73.238;2022-10-16T10:24:14;101427.65;;;21.16;58.04
73245;BME280;61460;41.158;-73.238;2022-10-16T10:26:50;101434.16;;;20.93;58.69
73245;BME280;61460;41.158;-73.238;2022-10-16T10:29:20;101437.14;;;21.35;57.38
73245;BME280;61460;41.158;-73.238;2022-10-16T10:31:48;101434.04;;;21.04;58.39
73245;BME280;61460;41.158;-73.238;2022-10-16T10:34:26;101436.55;;;21.13;57.99
73245;BME280;61460;41.158;-73.238;2022-10-16T10:36:52;101437.21;;;20.74;59.07
73245;BME280;61460;41.158;-73.238;2022-10-16T10:39:22;101436.84;;;21.10;58.00
73245;BME280;61460;41.158;-73.238;2022-10-16T10:44:26;101447.05;;;20.60;59.17
73245;BME280;61460;41.158;-73.238;2022-10-16T10:46:51;101445.40;;;20.83;58.46
73245;BME280;61460;41.158;-73.238;2022-10-16T10:49:30;101445.41;;;20.82;58.59
73245;BME280;61460;41.158;-73.238;2022-10-16T10:51:56;101447.31;;;21.01;57.95
73245;BME280;61460;41.158;-73.238;2022-10-16T10:54:25;101454.65;;;20.76;58.54
73245;BME280;61460;41.158;-73.238;2022-10-16T10:56:57;101448.32;;;21.01;57.85
73245;BME280;61460;41.158;-73.238;2022-10-16T11:01:56;101451.18;;;21.21;57.29
73245;BME280;61460;41.158;-73.238;2022-10-16T11:04:37;101454.64;;;20.87;58.16
73245;BME280;61460;41.158;-73.238;2022-10-16T11:06:57;101464.74;;;20.85;58.16
73245;BME280;61460;41.158;-73.238;2022-10-16T11:09:27;101461.63;;;20.65;58.96
73245;BME280;61460;41.158;-73.238;2022-10-16T11:11:58;101464.02;;;20.73;58.65
73245;BME280;61460;41.158;-73.238;2022-10-16T11:14:30;101461.18;;;20.95;57.93
73245;BME280;61460;41.158;-73.238;2022-10-16T11:16:59;101462.21;;;20.74;58.43
73245;BME280;61460;41.158;-73.238;2022-10-16T11:19:35;101467.21;;;21.06;57.73
73245;BME280;61460;41.158;-73.238;2022-10-16T11:22:01;101469.02;;;20.97;58.04
73245;BME280;61460;41.158;-73.238;2022-10-16T11:24:35;101474.67;;;21.13;57.62
73245;BME280;61460;41.158;-73.238;2022-10-16T11:27:00;101477.14;;;21.09;57.59
73245;BME280;61460;41.158;-73.238;2022-10-16T11:29:31;101476.94;;;21.10;57.71
73245;BME280;61460;41.158;-73.238;2022-10-16T11:32:06;101483.17;;;21.02;57.99
73245;BME280;61460;41.158;-73.238;2022-10-16T11:34:35;101489.41;;;21.10;57.80
73245;BME280;61460;41.158;-73.238;2022-10-16T11:37:05;101492.80;;;20.98;58.27
73245;BME280;61460;41.158;-73.238;2022-10-16T11:39:31;101493.30;;;20.98;58.20
73245;BME280;61460;41.158;-73.238;2022-10-16T11:42:08;101490.02;;;21.26;57.33
73245;BME280;61460;41.158;-73.238;2022-10-16T11:44:42;101485.36;;;21.68;56.27
73245;BME280;61460;41.158;-73.238;2022-10-16T11:47:11;101481.08;;;21.75;55.92
73245;BME280;61460;41.158;-73.238;2022-10-16T11:49:34;101478.79;;;21.64;56.04
73245;BME280;61460;41.158;-73.238;2022-10-16T11:52:10;101473.46;;;21.24;57.23
73245;BME280;61460;41.158;-73.238;2022-10-16T11:54:39;101472.97;;;21.45;56.53
73245;BME280;61460;41.158;-73.238;2022-10-16T11:57:11;101468.98;;;21.61;56.17
73245;BME280;61460;41.158;-73.238;2022-10-16T11:59:41;101478.89;;;22.02;55.29
73245;BME280;61460;41.158;-73.238;2022-10-16T12:04:42;101476.68;;;22.39;54.00
73245;BME280;61460;41.158;-73.238;2022-10-16T12:07:10;101477.35;;;22.50;53.97
73245;BME280;61460;41.158;-73.238;2022-10-16T12:09:40;101475.21;;;22.74;53.26
73245;BME280;61460;41.158;-73.238;2022-10-16T12:14:40;101484.02;;;22.88;53.20
73245;BME280;61460;41.158;-73.238;2022-10-16T12:19:41;101477.02;;;23.10;52.77
73245;BME280;61460;41.158;-73.238;2022-10-16T12:22:18;101475.85;;;23.12;52.88
73245;BME280;61460;41.158;-73.238;2022-10-16T12:24:43;101475.08;;;23.27;52.56
73245;BME280;61460;41.158;-73.238;2022-10-16T12:27:21;101475.83;;;23.35;52.46
73245;BME280;61460;41.158;-73.238;2022-10-16T12:29:44;101480.06;;;23.38;52.46
73245;BME280;61460;41.158;-73.238;2022-10-16T12:32:22;101475.81;;;23.43;52.53
73245;BME280;61460;41.158;-73.238;2022-10-16T12:34:45;101478.94;;;23.48;52.49
73245;BME280;61460;41.158;-73.238;2022-10-16T12:37:21;101475.79;;;23.57;52.46
73245;BME280;61460;41.158;-73.238;2022-10-16T12:39:47;101480.28;;;23.59;52.42
73245;BME280;61460;41.158;-73.238;2022-10-16T12:42:23;101485.23;;;23.60;52.58
73245;BME280;61460;41.158;-73.238;2022-10-16T12:44:47;101491.90;;;23.68;52.38
73245;BME280;61460;41.158;-73.238;2022-10-16T12:47:23;101497.54;;;23.71;52.20
73245;BME280;61460;41.158;-73.238;2022-10-16T12:49:50;101493.79;;;23.83;51.89
73245;BME280;61460;41.158;-73.238;2022-10-16T12:52:24;101497.93;;;23.80;51.81
73245;BME280;61460;41.158;-73.238;2022-10-16T12:54:51;101495.67;;;23.97;51.45
73245;BME280;61460;41.158;-73.238;2022-10-16T12:57:31;101495.12;;;23.98;51.59
73245;BME280;61460;41.158;-73.238;2022-10-16T12:59:57;101490.37;;;24.01;51.61
73245;BME280;61460;41.158;-73.238;2022-10-16T13:05:02;101484.42;;;24.07;51.80
73245;BME280;61460;41.158;-73.238;2022-10-16T13:07:37;101487.47;;;24.05;51.74